createdAt,value
2023-02-22T00:00:48.951Z,4.00
2023-02-22T00:03:25.241Z,3.96
2023-02-22T00:05:55.585Z,3.90
2023-02-22T00:08:30.470Z,3.83
2023-02-22T00:10:58.944Z,3.83
2023-02-22T00:13:29.636Z,3.79
2023-02-22T00:15:58.637Z,3.77
2023-02-22T00:18:28.799Z,3.74
2023-02-22T00:21:00.016Z,3.73
2023-02-22T00:23:30.348Z,3.71
2023-02-22T00:25:59.799Z,3.70
2023-02-22T00:28:30.750Z,3.67
2023-02-22T00:31:00.280Z,3.69
2023-02-22T00:33:28.506Z,3.73
2023-02-22T00:35:56.586Z,3.73
2023-02-22T00:38:24.973Z,3.70
2023-02-22T00:40:53.238Z,3.71
2023-02-22T00:43:21.546Z,3.71
2023-02-22T00:45:50.957Z,3.72
2023-02-22T00:48:19.620Z,3.70
2023-02-22T00:50:49.223Z,3.70
2023-02-22T00:53:17.925Z,3.69
2023-02-22T00:55:45.959Z,3.69
2023-02-22T00:58:14.119Z,3.70
2023-02-22T01:00:43.453Z,3.70
2023-02-22T01:03:15.891Z,3.67
2023-02-22T01:05:44.901Z,3.68
2023-02-22T01:08:18.028Z,3.69
2023-02-22T01:10:46.671Z,3.66
2023-02-22T01:13:15.120Z,3.63
2023-02-22T01:15:45.297Z,3.63
2023-02-22T01:18:17.273Z,3.65
2023-02-22T01:20:48.174Z,3.61
2023-02-22T01:23:17.466Z,3.60
2023-02-22T01:25:45.648Z,3.59
2023-02-22T01:28:15.776Z,3.58
2023-02-22T01:30:44.038Z,3.60
2023-02-22T01:33:15.616Z,3.62
2023-02-22T01:35:46.328Z,3.59
2023-02-22T01:38:15.248Z,3.59
2023-02-22T01:40:48.062Z,3.59
2023-02-22T01:43:24.847Z,3.58
2023-02-22T01:45:59.244Z,3.58
2023-02-22T01:48:36.989Z,3.57
2023-02-22T01:51:11.325Z,3.57
2023-02-22T01:53:45.102Z,3.55
2023-02-22T01:56:16.417Z,3.54
2023-02-22T01:58:47.796Z,3.54
2023-02-22T02:01:17.590Z,3.54
2023-02-22T02:03:49.154Z,3.55
2023-02-22T02:06:20.137Z,3.56
2023-02-22T02:08:54.919Z,3.57
2023-02-22T02:11:26.065Z,3.54
2023-02-22T02:13:56.406Z,3.53
2023-02-22T02:16:27.540Z,3.52
2023-02-22T02:18:57.128Z,3.51
2023-02-22T02:21:41.258Z,3.54
2023-02-22T02:24:40.331Z,3.53
2023-02-22T02:27:19.222Z,3.52
2023-02-22T02:30:20.788Z,3.52
2023-02-22T02:32:58.761Z,3.52
2023-02-22T02:35:39.300Z,3.54
2023-02-22T02:38:17.370Z,3.54
2023-02-22T02:40:50.062Z,3.53
2023-02-22T02:43:23.953Z,3.49
2023-02-22T02:45:55.598Z,3.49
2023-02-22T02:48:29.655Z,3.53
2023-02-22T02:51:01.361Z,3.50
2023-02-22T02:53:36.174Z,3.51
2023-02-22T02:56:05.254Z,3.50
2023-02-22T02:58:33.569Z,3.49
2023-02-22T03:01:04.559Z,3.50
2023-02-22T03:03:58.009Z,3.51
2023-02-22T03:06:47.096Z,3.50
2023-02-22T03:09:26.586Z,3.52
2023-02-22T03:12:02.259Z,3.51
2023-02-22T03:14:41.371Z,3.52
2023-02-22T03:17:23.703Z,3.52
2023-02-22T03:20:02.170Z,3.51
2023-02-22T03:22:38.718Z,3.50
2023-02-22T03:25:10.318Z,3.50
2023-02-22T03:27:44.694Z,3.50
2023-02-22T03:30:21.299Z,3.51
2023-02-22T03:32:57.738Z,3.51
2023-02-22T03:35:34.412Z,3.47
2023-02-22T03:38:08.797Z,3.46
2023-02-22T03:40:43.448Z,3.46
2023-02-22T03:43:16.387Z,3.46
2023-02-22T03:45:49.264Z,3.45
2023-02-22T03:48:27.272Z,3.42
2023-02-22T03:50:58.470Z,3.41
2023-02-22T03:53:27.753Z,3.42
2023-02-22T03:55:58.618Z,3.39
2023-02-22T03:58:32.505Z,3.37
2023-02-22T04:01:00.711Z,3.34
2023-02-22T04:03:28.821Z,3.32
2023-02-22T04:05:58.421Z,3.33
2023-02-22T04:08:26.551Z,3.33
2023-02-22T04:10:54.798Z,3.34
2023-02-22T04:13:27.514Z,3.36
2023-02-22T04:15:56.047Z,3.34
2023-02-22T04:18:24.222Z,3.35
2023-02-22T04:20:52.851Z,3.36
2023-02-22T04:23:32.235Z,3.35
2023-02-22T04:26:00.692Z,3.33
2023-02-22T04:28:29.539Z,3.36
2023-02-22T04:31:08.812Z,3.38
2023-02-22T04:33:37.040Z,3.39
2023-02-22T04:36:05.723Z,3.38
2023-02-22T04:38:37.334Z,3.37
2023-02-22T04:41:05.644Z,3.38
2023-02-22T04:43:33.825Z,3.36
2023-02-22T04:46:09.111Z,3.37
2023-02-22T04:48:37.325Z,3.38
2023-02-22T04:51:05.865Z,3.37
2023-02-22T04:53:34.032Z,3.35
2023-02-22T04:56:03.542Z,3.36
2023-02-22T04:58:32.458Z,3.34
2023-02-22T05:01:01.323Z,3.38
2023-02-22T05:03:29.600Z,3.38
2023-02-22T05:05:57.619Z,3.38
2023-02-22T05:08:25.741Z,3.37
2023-02-22T05:10:54.747Z,3.35
2023-02-22T05:13:24.138Z,3.33
2023-02-22T05:15:52.261Z,3.32
2023-02-22T05:18:20.360Z,3.33
2023-02-22T05:20:48.436Z,3.30
2023-02-22T05:23:16.567Z,3.28
2023-02-22T05:25:45.974Z,3.31
2023-02-22T05:28:15.867Z,3.28
2023-02-22T05:30:45.418Z,3.29
2023-02-22T05:33:14.081Z,3.31
2023-02-22T05:35:42.131Z,3.33
2023-02-22T05:38:11.999Z,3.33
2023-02-22T05:40:40.097Z,3.33
2023-02-22T05:43:08.308Z,3.34
2023-02-22T05:45:37.174Z,3.32
2023-02-22T05:48:06.926Z,3.30
2023-02-22T05:50:35.644Z,3.31
2023-02-22T05:53:03.795Z,3.33
2023-02-22T05:55:32.204Z,3.34
2023-02-22T05:58:01.761Z,3.35
2023-02-22T06:00:31.833Z,3.33
2023-02-22T06:03:01.956Z,3.31
2023-02-22T06:05:32.279Z,3.30
2023-02-22T06:08:01.906Z,3.34
2023-02-22T06:10:30.165Z,3.34
2023-02-22T06:12:59.912Z,3.36
2023-02-22T06:15:29.484Z,3.37
2023-02-22T06:17:58.847Z,3.38
2023-02-22T06:20:28.521Z,3.38
2023-02-22T06:22:59.642Z,3.37
2023-02-22T06:25:31.165Z,3.38
2023-02-22T06:27:59.514Z,3.40
2023-02-22T06:30:29.103Z,3.39
2023-02-22T06:32:57.476Z,3.41
2023-02-22T06:35:25.557Z,3.41
2023-02-22T06:37:53.982Z,3.40
2023-02-22T06:40:23.501Z,3.38
2023-02-22T06:42:51.701Z,3.37
2023-02-22T06:45:19.911Z,3.39
2023-02-22T06:47:49.687Z,3.39
2023-02-22T06:50:21.616Z,3.36
2023-02-22T06:52:49.772Z,3.38
2023-02-22T06:55:19.916Z,3.38
2023-02-22T06:57:49.484Z,3.39
2023-02-22T07:00:19.125Z,3.40
2023-02-22T07:02:48.419Z,3.40
2023-02-22T07:05:18.263Z,3.41
2023-02-22T07:07:46.795Z,3.42
2023-02-22T07:10:21.442Z,3.43
2023-02-22T07:12:52.480Z,3.42
2023-02-22T07:15:23.616Z,3.44
2023-02-22T07:17:52.052Z,3.46
2023-02-22T07:20:21.667Z,3.47
2023-02-22T07:22:50.368Z,3.45
2023-02-22T07:25:18.876Z,3.46
2023-02-22T07:27:47.312Z,3.44
2023-02-22T07:30:20.632Z,3.48
2023-02-22T07:32:49.022Z,3.50
2023-02-22T07:35:18.556Z,3.49
2023-02-22T07:37:48.276Z,3.51
2023-02-22T07:40:17.992Z,3.54
2023-02-22T07:42:54.552Z,3.54
2023-02-22T07:45:25.683Z,3.58
2023-02-22T07:47:54.007Z,3.63
2023-02-22T07:50:24.671Z,3.64
2023-02-22T07:52:55.233Z,3.67
2023-02-22T07:55:25.124Z,3.73
2023-02-22T07:57:55.102Z,3.76
2023-02-22T08:00:27.117Z,3.80
2023-02-22T08:02:55.576Z,3.80
2023-02-22T08:05:26.450Z,3.83
2023-02-22T08:07:54.676Z,3.87
2023-02-22T08:10:24.472Z,3.91
2023-02-22T08:12:53.481Z,3.93
2023-02-22T08:15:25.363Z,3.96
2023-02-22T08:17:54.581Z,3.99
2023-02-22T08:20:23.490Z,4.02
2023-02-22T08:22:52.069Z,4.06
2023-02-22T08:25:21.703Z,4.10
2023-02-22T08:27:50.221Z,4.16
2023-02-22T08:30:20.972Z,4.19
2023-02-22T08:32:51.987Z,4.21
2023-02-22T08:35:22.403Z,4.24
2023-02-22T08:37:54.560Z,4.29
2023-02-22T08:40:24.875Z,4.32
2023-02-22T08:42:53.277Z,4.35
2023-02-22T08:45:21.693Z,4.42
2023-02-22T08:47:51.529Z,4.47
2023-02-22T08:50:21.520Z,4.50
2023-02-22T08:52:51.345Z,4.54
2023-02-22T08:55:21.486Z,4.60
2023-02-22T08:57:50.752Z,4.62
2023-02-22T09:00:19.414Z,4.64
2023-02-22T09:02:47.758Z,4.67
2023-02-22T09:05:17.295Z,4.71
2023-02-22T09:07:45.988Z,4.72
2023-02-22T09:10:16.595Z,4.75
2023-02-22T09:12:45.493Z,4.77
2023-02-22T09:15:16.426Z,4.76
2023-02-22T09:17:44.761Z,4.77
2023-02-22T09:20:13.944Z,4.80
2023-02-22T09:22:45.934Z,4.83
2023-02-22T09:25:17.001Z,4.86
2023-02-22T09:27:48.061Z,4.91
2023-02-22T09:30:20.651Z,4.99
2023-02-22T09:32:49.162Z,5.01
2023-02-22T09:35:17.289Z,5.04
2023-02-22T09:37:46.734Z,5.10
2023-02-22T09:40:24.877Z,5.15
2023-02-22T09:43:07.266Z,5.20
2023-02-22T09:45:40.140Z,5.25
2023-02-22T09:48:21.202Z,5.25
2023-02-22T09:50:52.647Z,5.23
2023-02-22T09:53:30.153Z,5.20
2023-02-22T09:56:01.896Z,5.19
2023-02-22T09:58:34.513Z,5.22
2023-02-22T10:01:17.728Z,5.25
2023-02-22T10:03:53.448Z,5.24
2023-02-22T10:06:23.735Z,5.21
2023-02-22T10:08:58.432Z,5.23
2023-02-22T10:11:38.476Z,5.20
2023-02-22T10:14:28.395Z,5.18
2023-02-22T10:17:04.542Z,5.15
2023-02-22T10:19:46.457Z,5.15
2023-02-22T10:22:29.048Z,5.23
2023-02-22T10:25:04.865Z,5.31
2023-02-22T10:27:35.385Z,5.37
2023-02-22T10:30:24.165Z,5.38
2023-02-22T10:33:00.693Z,5.42
2023-02-22T10:35:31.140Z,5.40
2023-02-22T10:38:07.612Z,5.38
2023-02-22T10:40:39.361Z,5.34
2023-02-22T10:43:11.182Z,5.33
2023-02-22T10:45:39.640Z,5.27
2023-02-22T10:48:11.876Z,5.24
2023-02-22T10:50:43.250Z,5.24
2023-02-22T10:53:15.410Z,5.17
2023-02-22T10:56:17.223Z,5.11
2023-02-22T10:58:51.164Z,5.08
2023-02-22T11:01:20.653Z,5.13
2023-02-22T11:03:58.741Z,5.18
2023-02-22T11:06:27.502Z,5.23
2023-02-22T11:09:06.707Z,5.29
2023-02-22T11:11:35.028Z,5.25
2023-02-22T11:14:06.801Z,5.19
2023-02-22T11:16:38.336Z,5.14
2023-02-22T11:19:20.548Z,5.10
2023-02-22T11:21:51.574Z,5.06
2023-02-22T11:24:24.260Z,5.02
2023-02-22T11:26:56.499Z,4.96
2023-02-22T11:29:32.429Z,4.85
2023-02-22T11:32:03.603Z,4.79
2023-02-22T11:34:36.513Z,4.72
2023-02-22T11:37:32.657Z,4.67
2023-02-22T11:40:17.760Z,4.65
2023-02-22T11:42:46.575Z,4.62
2023-02-22T11:45:20.921Z,4.64
2023-02-22T11:47:55.134Z,4.66
2023-02-22T11:50:29.445Z,4.75
2023-02-22T11:53:13.895Z,4.86
2023-02-22T11:55:52.107Z,4.97
2023-02-22T11:58:36.761Z,5.30
2023-02-22T12:01:17.173Z,5.71
2023-02-22T12:04:02.953Z,5.67
2023-02-22T12:06:42.155Z,6.17
2023-02-22T12:09:18.670Z,6.32
2023-02-22T12:11:59.893Z,6.06
2023-02-22T12:14:35.613Z,5.78
2023-02-22T12:17:23.886Z,5.52
2023-02-22T12:19:56.464Z,5.26
2023-02-22T12:22:28.874Z,5.08
2023-02-22T12:25:09.474Z,5.08
2023-02-22T12:27:43.533Z,5.85
2023-02-22T12:30:17.489Z,6.88
2023-02-22T12:32:51.815Z,7.68
2023-02-22T12:35:24.627Z,8.14
2023-02-22T12:38:01.819Z,8.48
2023-02-22T12:40:36.733Z,8.43
2023-02-22T12:43:16.714Z,8.34
2023-02-22T12:45:49.685Z,8.56
2023-02-22T12:48:32.062Z,8.70
2023-02-22T12:51:08.529Z,8.01
2023-02-22T12:53:41.258Z,7.24
2023-02-22T12:56:22.694Z,6.67
2023-02-22T12:58:58.980Z,6.26
2023-02-22T13:01:34.150Z,6.07
2023-02-22T13:04:19.394Z,6.95
2023-02-22T13:06:59.959Z,8.07
2023-02-22T13:09:57.488Z,8.45
2023-02-22T13:12:33.698Z,8.18
2023-02-22T13:15:10.811Z,7.53
2023-02-22T13:17:43.969Z,7.17
2023-02-22T13:20:19.596Z,6.91
2023-02-22T13:22:54.178Z,6.76
2023-02-22T13:25:27.666Z,6.52
2023-02-22T13:27:59.880Z,6.17
2023-02-22T13:30:38.236Z,5.82
2023-02-22T13:33:26.822Z,5.52
2023-02-22T13:36:12.617Z,5.36
2023-02-22T13:39:03.647Z,5.25
2023-02-22T13:41:58.845Z,5.26
2023-02-22T13:44:45.504Z,5.69
2023-02-22T13:47:39.364Z,6.16
2023-02-22T13:50:39.408Z,6.43
2023-02-22T13:53:15.645Z,6.52
2023-02-22T13:55:49.544Z,6.47
2023-02-22T13:58:17.939Z,6.47
2023-02-22T14:00:49.916Z,6.50
2023-02-22T14:03:40.877Z,6.48
2023-02-22T14:06:12.381Z,6.65
2023-02-22T14:08:46.693Z,6.94
2023-02-22T14:11:46.269Z,7.13
2023-02-22T14:14:19.152Z,7.08
2023-02-22T14:17:21.920Z,6.69
2023-02-22T14:20:35.250Z,6.02
2023-02-22T14:23:30.070Z,4.98
2023-02-22T14:26:12.672Z,4.16
2023-02-22T14:28:48.747Z,3.87
2023-02-22T14:31:35.096Z,3.81
2023-02-22T14:34:08.409Z,3.90
2023-02-22T14:36:43.655Z,4.03
2023-02-22T14:39:18.844Z,4.16
2023-02-22T14:41:54.292Z,4.31
2023-02-22T14:44:27.588Z,4.46
2023-02-22T14:47:02.549Z,4.55
2023-02-22T14:49:33.231Z,4.60
2023-02-22T14:52:06.479Z,4.65
2023-02-22T14:54:42.353Z,4.64
2023-02-22T14:57:21.684Z,4.68
2023-02-22T15:00:01.401Z,4.72
2023-02-22T15:02:41.484Z,4.72
2023-02-22T15:05:14.982Z,4.69
2023-02-22T15:07:52.322Z,4.68
2023-02-22T15:10:26.421Z,4.71
2023-02-22T15:13:09.842Z,4.79
2023-02-22T15:15:43.837Z,4.82
2023-02-22T15:18:23.104Z,4.74
2023-02-22T15:20:56.463Z,4.56
2023-02-22T15:23:30.300Z,4.40
2023-02-22T15:25:58.861Z,4.22
2023-02-22T15:28:31.441Z,4.11
2023-02-22T15:31:19.959Z,4.00
2023-02-22T15:33:48.398Z,3.88
2023-02-22T15:36:18.070Z,3.80
2023-02-22T15:38:50.653Z,3.76
2023-02-22T15:41:27.872Z,3.73
2023-02-22T15:44:07.978Z,3.69
2023-02-22T15:46:42.801Z,3.67
2023-02-22T15:49:33.799Z,3.68
2023-02-22T15:52:08.389Z,3.69
2023-02-22T15:54:42.386Z,3.69
2023-02-22T15:57:10.701Z,3.67
2023-02-22T15:59:46.680Z,3.72
2023-02-22T16:02:37.099Z,3.78
2023-02-22T16:05:08.985Z,3.88
2023-02-22T16:07:45.298Z,4.01
2023-02-22T16:10:24.119Z,4.18
2023-02-22T16:13:04.760Z,4.24
2023-02-22T16:15:35.502Z,4.21
2023-02-22T16:18:26.630Z,4.10
2023-02-22T16:21:03.982Z,3.96
2023-02-22T16:23:33.618Z,3.86
2023-02-22T16:26:04.673Z,3.76
2023-02-22T16:28:35.699Z,3.67
2023-02-22T16:31:05.492Z,3.58
2023-02-22T16:33:34.569Z,3.50
2023-02-22T16:36:08.297Z,3.42
2023-02-22T16:38:38.558Z,3.39
2023-02-22T16:41:08.376Z,3.35
2023-02-22T16:43:37.275Z,3.31
2023-02-22T16:46:07.960Z,3.24
2023-02-22T16:48:38.455Z,3.21
2023-02-22T16:51:14.982Z,3.15
2023-02-22T16:53:44.680Z,3.09
2023-02-22T16:56:17.819Z,3.05
2023-02-22T16:58:49.804Z,2.97
2023-02-22T17:01:20.492Z,2.97
2023-02-22T17:03:50.674Z,2.99
2023-02-22T17:06:19.027Z,2.93
2023-02-22T17:08:47.313Z,2.90
2023-02-22T17:11:15.953Z,2.88
2023-02-22T17:13:45.769Z,2.86
2023-02-22T17:16:16.398Z,2.88
2023-02-22T17:18:47.080Z,2.89
2023-02-22T17:21:16.669Z,2.94
2023-02-22T17:23:46.002Z,3.03
2023-02-22T17:26:16.492Z,3.08
2023-02-22T17:28:45.245Z,3.14
2023-02-22T17:31:22.500Z,3.19
2023-02-22T17:33:52.562Z,3.21
2023-02-22T17:36:20.973Z,3.22
2023-02-22T17:38:50.109Z,3.21
2023-02-22T17:41:18.230Z,3.21
2023-02-22T17:43:46.375Z,3.19
2023-02-22T17:46:14.671Z,3.21
2023-02-22T17:48:42.868Z,3.24
2023-02-22T17:51:13.209Z,3.27
2023-02-22T17:53:41.956Z,3.31
2023-02-22T17:56:13.314Z,3.34
2023-02-22T17:58:42.248Z,3.36
2023-02-22T18:01:21.687Z,3.36
2023-02-22T18:03:50.412Z,3.33
2023-02-22T18:06:24.809Z,3.28
2023-02-22T18:08:56.033Z,3.24
2023-02-22T18:11:26.838Z,3.16
2023-02-22T18:13:56.023Z,3.09
2023-02-22T18:16:25.700Z,2.98
2023-02-22T18:18:54.313Z,2.84
2023-02-22T18:21:26.841Z,2.73
2023-02-22T18:23:55.358Z,2.63
2023-02-22T18:26:26.055Z,2.54
2023-02-22T18:28:54.952Z,2.54
2023-02-22T18:31:24.516Z,2.48
2023-02-22T18:33:53.973Z,2.38
2023-02-22T18:36:23.804Z,2.33
2023-02-22T18:38:53.789Z,2.30
2023-02-22T18:41:25.309Z,2.27
2023-02-22T18:43:55.568Z,2.26
2023-02-22T18:46:25.584Z,2.26
2023-02-22T18:48:55.191Z,2.25
2023-02-22T18:51:25.118Z,2.21
2023-02-22T18:53:59.861Z,2.22
2023-02-22T18:56:30.154Z,2.21
2023-02-22T18:59:01.013Z,2.21
2023-02-22T19:01:30.318Z,2.22
2023-02-22T19:03:59.352Z,2.25
2023-02-22T19:06:28.847Z,2.23
2023-02-22T19:08:57.028Z,2.32
2023-02-22T19:11:25.984Z,2.38
2023-02-22T19:13:57.265Z,2.45
2023-02-22T19:16:27.772Z,2.45
2023-02-22T19:18:58.063Z,2.50
2023-02-22T19:21:29.333Z,2.48
2023-02-22T19:24:02.744Z,2.44
2023-02-22T19:26:32.111Z,2.37
2023-02-22T19:29:04.727Z,2.33
2023-02-22T19:31:35.266Z,2.29
2023-02-22T19:34:09.041Z,2.26
2023-02-22T19:36:41.692Z,2.24
2023-02-22T19:39:11.194Z,2.28
2023-02-22T19:41:39.721Z,2.28
2023-02-22T19:44:08.522Z,2.25
2023-02-22T19:46:37.821Z,2.22
2023-02-22T19:49:06.470Z,2.23
2023-02-22T19:51:34.831Z,2.23
2023-02-22T19:54:07.068Z,2.23
2023-02-22T19:56:36.592Z,2.19
2023-02-22T19:59:12.544Z,2.26
2023-02-22T20:01:44.512Z,2.28
2023-02-22T20:04:18.188Z,2.30
2023-02-22T20:06:47.076Z,2.30
2023-02-22T20:09:18.910Z,2.29
2023-02-22T20:11:48.002Z,2.24
2023-02-22T20:14:20.022Z,2.18
2023-02-22T20:16:48.202Z,2.13
2023-02-22T20:19:16.277Z,2.10
2023-02-22T20:21:44.890Z,2.09
2023-02-22T20:24:18.454Z,2.13
2023-02-22T20:26:49.065Z,2.18
2023-02-22T20:29:17.583Z,2.26
2023-02-22T20:31:49.324Z,2.36
2023-02-22T20:34:17.541Z,2.46
2023-02-22T20:36:45.641Z,2.56
2023-02-22T20:39:15.239Z,2.64
2023-02-22T20:41:46.270Z,2.71
2023-02-22T20:44:17.313Z,2.77
2023-02-22T20:46:46.580Z,2.80
2023-02-22T20:49:17.181Z,2.81
2023-02-22T20:51:48.144Z,2.83
2023-02-22T20:54:16.594Z,2.86
2023-02-22T20:56:47.234Z,2.87
2023-02-22T20:59:19.073Z,2.88
2023-02-22T21:01:50.083Z,2.90
2023-02-22T21:04:18.757Z,2.92
2023-02-22T21:06:47.078Z,2.93
2023-02-22T21:09:18.202Z,2.93
2023-02-22T21:11:47.119Z,2.96
2023-02-22T21:14:18.891Z,2.97
2023-02-22T21:16:48.556Z,2.93
2023-02-22T21:19:26.186Z,2.92
2023-02-22T21:21:55.981Z,2.92
2023-02-22T21:24:25.169Z,2.87
2023-02-22T21:26:53.398Z,2.84
2023-02-22T21:29:22.738Z,2.82
2023-02-22T21:31:51.119Z,2.83
2023-02-22T21:34:20.088Z,2.88
2023-02-22T21:36:48.363Z,2.89
2023-02-22T21:39:19.225Z,2.93
2023-02-22T21:41:49.321Z,2.95
2023-02-22T21:44:17.972Z,2.99
2023-02-22T21:46:48.862Z,2.98
2023-02-22T21:49:17.483Z,2.97
2023-02-22T21:51:45.970Z,2.95
2023-02-22T21:54:14.000Z,2.92
2023-02-22T21:56:44.104Z,2.92
2023-02-22T21:59:14.938Z,2.92
2023-02-22T22:01:47.253Z,2.90
2023-02-22T22:04:19.955Z,2.91
2023-02-22T22:06:49.461Z,2.89
2023-02-22T22:09:20.398Z,2.87
2023-02-22T22:11:50.710Z,2.89
2023-02-22T22:14:19.937Z,2.89
2023-02-22T22:16:49.114Z,2.87
2023-02-22T22:19:18.827Z,2.85
2023-02-22T22:21:49.110Z,2.83
2023-02-22T22:24:20.382Z,2.84
2023-02-22T22:26:51.098Z,2.84
2023-02-22T22:29:20.393Z,2.82
2023-02-22T22:31:48.879Z,2.84
2023-02-22T22:34:19.475Z,2.86
2023-02-22T22:36:47.983Z,2.88
2023-02-22T22:39:16.159Z,2.88
2023-02-22T22:41:45.312Z,2.89
2023-02-22T22:44:16.150Z,2.90
2023-02-22T22:46:49.147Z,2.92
2023-02-22T22:49:20.477Z,2.92
2023-02-22T22:51:48.604Z,2.90
2023-02-22T22:54:16.670Z,2.89
2023-02-22T22:56:45.063Z,2.90
2023-02-22T22:59:13.557Z,2.95
2023-02-22T23:01:44.771Z,2.95
2023-02-22T23:04:16.390Z,2.93
2023-02-22T23:06:49.933Z,2.91
2023-02-22T23:09:21.787Z,2.86
2023-02-22T23:11:53.430Z,2.81
2023-02-22T23:14:24.462Z,2.78
2023-02-22T23:16:56.524Z,2.73
2023-02-22T23:19:24.689Z,2.70
2023-02-22T23:21:56.016Z,2.69
2023-02-22T23:24:27.376Z,2.64
2023-02-22T23:27:00.158Z,2.63
2023-02-22T23:29:29.947Z,2.60
2023-02-22T23:31:58.900Z,2.60
2023-02-22T23:34:28.968Z,2.61
2023-02-22T23:36:58.449Z,2.58
2023-02-22T23:39:27.326Z,2.58
2023-02-22T23:41:59.226Z,2.60
2023-02-22T23:44:28.069Z,2.61
2023-02-22T23:46:56.733Z,2.61
2023-02-22T23:49:26.607Z,2.60
2023-02-22T23:51:54.898Z,2.58
2023-02-22T23:54:24.809Z,2.56
2023-02-22T23:56:56.839Z,2.53
2023-02-22T23:59:26.529Z,2.52
